Port Maitland, Canada
Current Conditions -  °F | °C
As of 6:00 AM on Thursday 23 Oct 2014 (Local Time) from CYQI Reporting Station
Rain Showers Rain Showers  
Wind Chill: 57°   Ceiling: 800
Heat Index: 57°   Visibility: 5mi
Dew Point: 55°   Wind: 20mph
Humidity: 94%   Direction: 90°E
Pressure: 29.87"   Gusts: 30mph
Location:  43.97°N, 66.13°W
Report Text: CYQI 230900Z 09017G26KT 5SM -SHRA BR OVC008 14/13 A2987 RMK SF8 SLP114
Loading
Personal Weather Stations






























Interactive Weather Map
Tropical Storm Tracking
New forecast layout! Learn more

10-Day Weather Forecast

Advertisements
Track Severe Weather on mobile